Time;durP1;ratioP1;P1;durP2;ratioP2;P2;SDS_P1;SDS_P2;PMS_P1;PMS_P2;Temp;Humidity;BMP_temperature;BMP_pressure;BME280_temperature;BME280_humidity;BME280_pressure;Samples;Min_cycle;Max_cycle;Signal;HPM_P1;HPM_P2
2023/11/26 00:00:18;;;;;;;41.50;33.70;;;5.30;99.90;;;;;;4972929;28;20023;-71
2023/11/26 00:02:44;;;;;;;44.20;38.90;;;5.30;99.90;;;;;;4990989;28;20033;-71
2023/11/26 00:05:10;;;;;;;47.50;41.37;;;5.30;99.90;;;;;;4992749;28;20038;-71
2023/11/26 00:07:37;;;;;;;47.20;42.33;;;5.20;99.90;;;;;;4991852;28;20403;-71
2023/11/26 00:10:03;;;;;;;48.93;42.13;;;5.20;99.90;;;;;;4993411;28;20046;-70
2023/11/26 00:12:29;;;;;;;47.07;40.07;;;5.10;99.90;;;;;;5011785;28;20033;-70
2023/11/26 00:14:55;;;;;;;47.37;40.70;;;5.10;99.90;;;;;;5012739;28;20038;-71
2023/11/26 00:17:22;;;;;;;56.33;46.27;;;5.20;99.90;;;;;;4993087;28;20046;-70
2023/11/26 00:19:49;;;;;;;70.20;53.03;;;5.20;99.90;;;;;;4993217;28;20476;-71
2023/11/26 00:22:15;;;;;;;80.77;58.47;;;5.20;99.90;;;;;;4975518;28;20058;-71
2023/11/26 00:24:41;;;;;;;72.27;52.10;;;5.20;99.90;;;;;;4992742;28;20065;-71
2023/11/26 00:27:07;;;;;;;114.33;58.03;;;5.20;99.90;;;;;;5006749;28;20073;-70
2023/11/26 00:29:40;;;;;;;154.23;64.73;;;5.10;99.90;;;;;;5011322;28;20026;-71
2023/11/26 00:32:09;;;;;;;134.80;66.27;;;5.10;99.90;;;;;;5010117;28;20038;-71
2023/11/26 00:34:36;;;;;;;160.13;79.60;;;5.10;99.90;;;;;;5011297;28;20033;-70
2023/11/26 00:37:02;;;;;;;76.80;48.77;;;5.10;99.90;;;;;;5011765;28;20037;-70
2023/11/26 00:39:29;;;;;;;85.43;54.63;;;5.10;99.90;;;;;;5011238;28;20022;-70
2023/11/26 00:41:56;;;;;;;70.67;50.43;;;5.10;99.90;;;;;;5010968;28;20053;-70
2023/11/26 00:44:25;;;;;;;76.63;53.33;;;5.00;99.90;;;;;;5012870;28;20042;-74
2023/11/26 00:46:54;;;;;;;89.20;60.63;;;4.90;99.90;;;;;;5009970;28;20049;-75
2023/11/26 00:49:21;;;;;;;62.03;45.60;;;4.90;99.90;;;;;;5012380;28;20038;-74
2023/11/26 00:51:47;;;;;;;69.90;48.80;;;4.90;99.90;;;;;;5012445;28;20041;-74
2023/11/26 00:54:13;;;;;;;64.47;46.27;;;4.90;99.90;;;;;;5012411;28;20041;-75
2023/11/26 00:56:39;;;;;;;74.63;48.23;;;4.90;99.90;;;;;;5011670;28;20378;-74
2023/11/26 00:59:05;;;;;;;99.10;60.43;;;5.00;99.90;;;;;;5012262;28;20034;-75
2023/11/26 01:01:32;;;;;;;98.30;56.17;;;5.00;99.90;;;;;;5011028;28;20399;-74
2023/11/26 01:03:58;;;;;;;84.23;51.30;;;4.90;99.90;;;;;;5012336;28;20635;-74
2023/11/26 01:06:25;;;;;;;99.53;58.83;;;4.90;99.90;;;;;;5011638;28;20033;-74
2023/11/26 01:08:51;;;;;;;94.00;54.00;;;4.90;99.90;;;;;;5011959;28;20049;-74
2023/11/26 01:11:17;;;;;;;84.33;52.70;;;4.90;99.90;;;;;;5012010;28;20037;-74
2023/11/26 01:13:43;;;;;;;66.97;44.47;;;4.90;99.90;;;;;;5014214;28;20034;-75
2023/11/26 01:16:09;;;;;;;60.23;42.57;;;4.80;99.90;;;;;;5014695;28;20045;-74
2023/11/26 01:18:37;;;;;;;57.20;42.67;;;4.80;99.90;;;;;;5015928;28;20034;-75
2023/11/26 01:21:04;;;;;;;75.70;49.13;;;4.80;99.90;;;;;;5009643;28;20041;-74
2023/11/26 01:23:30;;;;;;;125.63;72.03;;;4.80;99.90;;;;;;4996314;28;20033;-74
2023/11/26 01:25:56;;;;;;;150.17;66.60;;;4.90;99.90;;;;;;4995896;28;20118;-75
2023/11/26 01:28:22;;;;;;;172.27;67.17;;;4.80;99.90;;;;;;4996123;28;20034;-74
2023/11/26 01:30:48;;;;;;;104.73;51.20;;;4.80;99.90;;;;;;4995191;28;20035;-74
2023/11/26 01:33:16;;;;;;;154.93;58.87;;;4.80;99.90;;;;;;4996312;28;20031;-74
2023/11/26 01:35:42;;;;;;;175.97;71.67;;;4.80;99.90;;;;;;4996023;28;20039;-74
2023/11/26 01:38:08;;;;;;;232.90;112.23;;;4.80;99.90;;;;;;4996105;28;20034;-74
2023/11/26 01:40:38;;;;;;;93.43;67.37;;;4.80;99.90;;;;;;4995595;28;20030;-74
2023/11/26 01:43:05;;;;;;;102.50;65.90;;;4.70;99.90;;;;;;4996318;28;20053;-74
2023/11/26 01:45:31;;;;;;;252.07;88.33;;;4.80;99.90;;;;;;4995082;28;20030;-75
2023/11/26 01:48:00;;;;;;;178.43;76.33;;;4.80;99.90;;;;;;4996503;28;20050;-70
2023/11/26 01:50:26;;;;;;;132.83;57.07;;;4.70;99.90;;;;;;4978277;28;20035;-71
2023/11/26 01:52:53;;;;;;;181.27;60.87;;;4.70;99.90;;;;;;4995715;28;20038;-71
2023/11/26 01:55:20;;;;;;;231.17;59.57;;;4.70;99.90;;;;;;4994461;28;20360;-70
2023/11/26 01:57:47;;;;;;;254.73;68.40;;;4.70;99.90;;;;;;4995840;28;20042;-71
2023/11/26 02:00:14;;;;;;;247.13;70.87;;;4.80;99.90;;;;;;4993225;28;20037;-71
2023/11/26 02:02:41;;;;;;;88.87;54.70;;;4.70;99.90;;;;;;4995574;28;20345;-71
2023/11/26 02:05:11;;;;;;;130.27;63.47;;;4.70;99.90;;;;;;4995493;28;20030;-71
2023/11/26 02:07:41;;;;;;;218.47;66.67;;;4.70;99.90;;;;;;4989152;28;20034;-71
2023/11/26 02:10:08;;;;;;;212.80;68.27;;;4.70;99.90;;;;;;4994319;28;20038;-71
2023/11/26 02:12:34;;;;;;;136.43;54.20;;;4.70;99.90;;;;;;5014975;28;20049;-71
2023/11/26 02:15:01;;;;;;;148.03;54.30;;;4.70;99.90;;;;;;5014772;28;20041;-71
2023/11/26 02:17:27;;;;;;;188.47;56.33;;;4.70;99.90;;;;;;4999440;28;20506;-71
2023/11/26 02:19:53;;;;;;;165.77;49.73;;;4.70;99.90;;;;;;4995408;28;20038;-70
2023/11/26 02:22:19;;;;;;;171.43;61.67;;;4.70;99.90;;;;;;4993573;28;20030;-71
2023/11/26 02:24:49;;;;;;;116.87;54.80;;;4.60;99.90;;;;;;4994019;28;20554;-71
2023/11/26 02:27:15;;;;;;;281.63;64.47;;;4.60;99.90;;;;;;5009765;28;20411;-70
2023/11/26 02:29:41;;;;;;;60.40;34.80;;;4.60;99.90;;;;;;5013505;28;20042;-71
2023/11/26 02:32:08;;;;;;;215.50;53.93;;;4.60;99.90;;;;;;5012561;28;20061;-71
2023/11/26 02:34:34;;;;;;;301.80;80.63;;;4.60;99.90;;;;;;5014176;28;20041;-70
2023/11/26 02:37:00;;;;;;;262.13;62.23;;;4.60;99.90;;;;;;5013919;28;20029;-71
2023/11/26 02:39:29;;;;;;;282.17;81.17;;;4.60;99.90;;;;;;5013216;28;20026;-71
2023/11/26 02:41:56;;;;;;;217.03;66.40;;;4.60;99.90;;;;;;5012804;28;20034;-71
2023/11/26 02:44:22;;;;;;;178.57;48.37;;;4.60;99.90;;;;;;5014205;28;20053;-71
2023/11/26 02:46:48;;;;;;;266.37;58.90;;;4.60;99.90;;;;;;5010589;28;20034;-71
2023/11/26 02:49:14;;;;;;;224.20;54.00;;;4.70;99.90;;;;;;5014292;28;20367;-70
2023/11/26 02:51:40;;;;;;;235.10;51.83;;;4.70;99.90;;;;;;5012663;28;20045;-71
2023/11/26 02:54:06;;;;;;;182.13;44.27;;;4.70;99.90;;;;;;5014518;28;20057;-71
2023/11/26 02:56:33;;;;;;;222.37;67.90;;;4.70;99.90;;;;;;4995640;28;20045;-70
2023/11/26 02:58:59;;;;;;;294.27;74.83;;;4.60;99.90;;;;;;5012366;28;20022;-71
2023/11/26 03:01:29;;;;;;;196.33;38.57;;;4.60;99.90;;;;;;4998077;28;20411;-71
2023/11/26 03:03:56;;;;;;;317.55;57.63;;;4.60;99.90;;;;;;5012804;28;20056;-71
2023/11/26 03:06:26;;;;;;;270.93;34.80;;;4.60;99.90;;;;;;5013405;28;20045;-71
2023/11/26 03:09:00;;;;;;;397.00;47.30;;;4.60;99.90;;;;;;5012582;28;20386;-70
2023/11/26 03:14:13;;;;;;;300.53;41.30;;;4.50;99.90;;;;;;5015328;28;20088;-70
2023/11/26 03:16:39;;;;;;;530.17;61.50;;;4.50;99.90;;;;;;4994660;28;20037;-70
2023/11/26 03:19:08;;;;;;;424.73;51.60;;;4.60;99.90;;;;;;5012459;28;20041;-71
2023/11/26 03:21:36;;;;;;;332.23;45.47;;;4.50;99.90;;;;;;5003141;28;20034;-70
2023/11/26 03:24:04;;;;;;;398.83;55.30;;;4.50;99.90;;;;;;4994051;28;20088;-70
2023/11/26 03:26:30;;;;;;;367.50;46.30;;;4.50;99.90;;;;;;5006129;28;20049;-71
2023/11/26 03:28:56;;;;;;;334.40;54.10;;;4.50;99.90;;;;;;5012273;28;20057;-71
2023/11/26 03:31:23;;;;;;;223.40;39.03;;;4.40;99.90;;;;;;5012658;28;20035;-70
2023/11/26 03:33:51;;;;;;;295.13;41.97;;;4.40;99.90;;;;;;5012319;28;20026;-70
2023/11/26 03:36:17;;;;;;;84.30;28.23;;;4.50;99.90;;;;;;5004246;28;20034;-71
2023/11/26 03:38:43;;;;;;;227.27;44.17;;;4.50;99.90;;;;;;4992638;28;20034;-71
2023/11/26 03:41:11;;;;;;;317.57;39.63;;;4.40;99.90;;;;;;4991984;28;20061;-71
2023/11/26 03:43:37;;;;;;;103.83;30.47;;;4.40;99.90;;;;;;4992487;28;20038;-74
2023/11/26 03:46:03;;;;;;;75.23;26.13;;;4.30;99.90;;;;;;5001136;28;20506;-74
2023/11/26 03:48:29;;;;;;;163.80;33.63;;;4.30;99.90;;;;;;4996802;28;20479;-75
2023/11/26 03:50:55;;;;;;;223.47;41.83;;;4.30;99.90;;;;;;4994383;28;20038;-74
2023/11/26 03:53:21;;;;;;;156.03;29.53;;;4.40;99.90;;;;;;5012888;28;20026;-75
2023/11/26 03:55:49;;;;;;;49.03;24.37;;;4.40;99.90;;;;;;5012162;28;20034;-75
2023/11/26 03:58:16;;;;;;;31.10;25.77;;;4.20;99.90;;;;;;5012946;28;20045;-75
2023/11/26 04:00:42;;;;;;;30.80;22.43;;;4.20;99.90;;;;;;5012238;28;20487;-75
2023/11/26 04:03:08;;;;;;;44.57;22.73;;;4.00;99.90;;;;;;5013023;28;20046;-75
2023/11/26 04:05:34;;;;;;;64.97;25.47;;;3.90;99.90;;;;;;5012286;28;20043;-75
2023/11/26 04:08:00;;;;;;;48.67;22.43;;;3.80;99.90;;;;;;5012989;28;20395;-74
2023/11/26 04:10:26;;;;;;;155.83;34.83;;;3.70;99.90;;;;;;5012031;28;20064;-75
2023/11/26 04:12:52;;;;;;;57.53;31.40;;;3.80;99.90;;;;;;5013088;28;20041;-75
2023/11/26 04:15:22;;;;;;;88.93;34.50;;;3.90;99.90;;;;;;5011573;28;20021;-74
2023/11/26 04:17:48;;;;;;;61.93;37.90;;;4.00;99.90;;;;;;5012809;28;20474;-74
2023/11/26 04:20:15;;;;;;;48.53;36.47;;;3.90;99.90;;;;;;5012453;28;20038;-75
2023/11/26 04:22:41;;;;;;;50.20;36.27;;;3.90;99.90;;;;;;4993670;28;20045;-74
2023/11/26 04:25:09;;;;;;;40.73;36.83;;;3.70;99.90;;;;;;4992742;28;20054;-75
2023/11/26 04:27:35;;;;;;;45.63;35.40;;;3.80;99.90;;;;;;5012849;28;20061;-75
2023/11/26 04:30:03;;;;;;;36.03;32.67;;;3.70;99.90;;;;;;5012662;28;20380;-74
2023/11/26 04:32:29;;;;;;;36.73;33.53;;;3.60;99.90;;;;;;5011366;28;20046;-75
2023/11/26 04:34:55;;;;;;;36.50;33.20;;;3.60;99.90;;;;;;5012755;28;20033;-74
2023/11/26 04:37:21;;;;;;;35.50;29.63;;;3.70;99.90;;;;;;5012000;28;20042;-75
2023/11/26 04:39:49;;;;;;;37.43;24.83;;;3.70;99.90;;;;;;5005274;28;20391;-75
2023/11/26 04:42:16;;;;;;;29.17;26.03;;;3.60;99.90;;;;;;4992760;28;20070;-75
2023/11/26 04:44:42;;;;;;;61.17;27.73;;;3.70;99.90;;;;;;4993101;28;20080;-70
2023/11/26 04:47:09;;;;;;;47.90;26.03;;;3.70;99.90;;;;;;4992514;28;20050;-70
2023/11/26 04:49:35;;;;;;;34.20;25.57;;;3.80;99.90;;;;;;4998036;28;20033;-71
2023/11/26 04:52:01;;;;;;;28.80;25.83;;;3.70;99.90;;;;;;4997772;28;20038;-70
2023/11/26 04:54:27;;;;;;;30.43;26.30;;;3.60;99.90;;;;;;4997919;28;20054;-72
2023/11/26 04:56:53;;;;;;;31.33;28.20;;;3.40;99.90;;;;;;4997309;28;20407;-71
2023/11/26 04:59:19;;;;;;;28.17;25.10;;;3.40;99.90;;;;;;4998005;28;20031;-71
2023/11/26 05:01:48;;;;;;;34.27;27.97;;;3.50;99.90;;;;;;4997310;28;20508;-71
2023/11/26 05:04:15;;;;;;;32.57;26.00;;;3.50;99.90;;;;;;4998008;28;20033;-71
2023/11/26 05:06:42;;;;;;;28.93;25.90;;;3.60;99.90;;;;;;4997413;28;20050;-71
2023/11/26 05:09:11;;;;;;;36.43;32.27;;;3.60;99.90;;;;;;4999242;28;20058;-71
2023/11/26 05:11:41;;;;;;;32.10;28.80;;;3.50;99.90;;;;;;4997679;28;20030;-71
2023/11/26 05:14:07;;;;;;;33.60;28.90;;;3.60;99.90;;;;;;4997778;28;20031;-70
2023/11/26 05:16:33;;;;;;;30.80;27.63;;;3.60;99.90;;;;;;5008594;28;20499;-70
2023/11/26 05:18:59;;;;;;;30.53;27.33;;;3.60;99.90;;;;;;5017457;28;20041;-70
2023/11/26 05:21:27;;;;;;;31.77;28.50;;;3.60;99.90;;;;;;5009022;28;20219;-71
2023/11/26 05:23:54;;;;;;;28.57;25.57;;;3.60;99.90;;;;;;4996864;28;20050;-70
2023/11/26 05:26:21;;;;;;;31.40;27.47;;;3.60;99.90;;;;;;5006051;28;20050;-71
2023/11/26 05:28:47;;;;;;;33.50;29.63;;;3.60;99.90;;;;;;5018337;28;20042;-71
2023/11/26 05:31:14;;;;;;;33.90;27.20;;;3.60;99.90;;;;;;5016644;28;20041;-70
2023/11/26 05:33:40;;;;;;;34.40;30.80;;;3.50;99.90;;;;;;5016735;28;20046;-71
2023/11/26 05:36:07;;;;;;;36.83;30.63;;;3.40;99.90;;;;;;5012713;28;20034;-71
2023/11/26 05:38:34;;;;;;;34.13;30.03;;;3.20;99.90;;;;;;4997708;28;20029;-70
2023/11/26 05:41:00;;;;;;;38.17;31.60;;;3.10;99.90;;;;;;4998540;28;20030;-71
2023/11/26 05:43:27;;;;;;;32.67;28.40;;;3.20;99.90;;;;;;4997711;28;20034;-71
2023/11/26 05:45:53;;;;;;;33.43;28.10;;;3.20;99.90;;;;;;4996924;28;20407;-70
2023/11/26 05:48:19;;;;;;;33.07;29.63;;;3.30;99.90;;;;;;4999151;28;20046;-71
2023/11/26 05:50:45;;;;;;;35.83;32.20;;;3.30;99.90;;;;;;4997993;28;20038;-71
2023/11/26 05:53:12;;;;;;;31.97;28.07;;;3.20;99.90;;;;;;4998980;28;20026;-71
2023/11/26 05:55:38;;;;;;;30.87;27.00;;;3.20;99.90;;;;;;4997251;28;20043;-71
2023/11/26 05:58:04;;;;;;;30.80;26.67;;;3.40;99.90;;;;;;4998639;28;20019;-70
2023/11/26 06:00:30;;;;;;;33.10;28.00;;;3.20;99.90;;;;;;4995447;28;20100;-71
2023/11/26 06:02:56;;;;;;;36.63;28.87;;;3.10;99.90;;;;;;4995597;28;20034;-71
2023/11/26 06:05:23;;;;;;;31.93;27.43;;;3.00;99.90;;;;;;4995192;28;20372;-70
2023/11/26 06:07:49;;;;;;;32.93;27.43;;;2.70;99.90;;;;;;4997545;28;20034;-71
2023/11/26 06:10:15;;;;;;;32.40;28.30;;;2.40;99.90;;;;;;5014371;28;20045;-71
2023/11/26 06:12:42;;;;;;;42.03;29.03;;;2.20;99.90;;;;;;4995926;28;20027;-72
2023/11/26 06:15:09;;;;;;;93.17;32.77;;;2.30;99.90;;;;;;4994683;28;20026;-70
2023/11/26 06:17:35;;;;;;;50.50;33.73;;;2.20;99.90;;;;;;4993711;28;20042;-71
2023/11/26 06:20:02;;;;;;;69.97;38.23;;;2.10;99.90;;;;;;4993750;28;20026;-70
2023/11/26 06:22:28;;;;;;;157.40;38.60;;;2.10;99.90;;;;;;4989131;28;20026;-71
2023/11/26 06:24:54;;;;;;;326.63;51.50;;;2.10;99.90;;;;;;4987568;28;20065;-71
2023/11/26 06:27:20;;;;;;;63.40;28.03;;;2.10;99.90;;;;;;4994574;28;20039;-70
2023/11/26 06:29:46;;;;;;;100.03;28.93;;;2.00;99.90;;;;;;4994865;28;20510;-71
2023/11/26 06:32:12;;;;;;;167.67;33.47;;;1.90;99.90;;;;;;4994234;28;20049;-71
2023/11/26 06:34:39;;;;;;;158.47;34.67;;;2.10;99.90;;;;;;4994741;28;20042;-70
2023/11/26 06:37:05;;;;;;;187.03;32.53;;;2.40;99.90;;;;;;5007589;28;20049;-71
2023/11/26 06:39:31;;;;;;;132.60;30.13;;;2.40;99.90;;;;;;5004417;28;20038;-71
2023/11/26 06:41:57;;;;;;;92.13;29.47;;;2.40;99.90;;;;;;4994408;28;20046;-70
2023/11/26 06:44:23;;;;;;;121.77;28.53;;;2.20;99.90;;;;;;5006519;28;20037;-71
2023/11/26 06:46:53;;;;;;;140.83;32.50;;;1.90;99.90;;;;;;5008657;28;20039;-71
2023/11/26 06:49:19;;;;;;;222.70;35.30;;;1.80;99.90;;;;;;4992881;28;20038;-71
2023/11/26 06:51:45;;;;;;;95.30;29.47;;;2.00;99.90;;;;;;5007297;28;20045;-71
2023/11/26 06:54:11;;;;;;;101.27;32.50;;;2.30;99.90;;;;;;5011021;28;20030;-71
2023/11/26 06:56:37;;;;;;;83.27;31.30;;;2.40;99.90;;;;;;5003295;28;20045;-70
2023/11/26 06:59:03;;;;;;;130.80;29.03;;;2.40;99.90;;;;;;4994543;28;20026;-70
2023/11/26 07:01:31;;;;;;;92.17;29.70;;;1.90;99.90;;;;;;5004433;28;20394;-71
2023/11/26 07:03:57;;;;;;;94.17;29.30;;;1.70;99.90;;;;;;5013564;28;20052;-71
2023/11/26 07:06:23;;;;;;;96.47;32.00;;;1.60;99.90;;;;;;4997999;28;20490;-70
2023/11/26 07:08:49;;;;;;;80.00;29.90;;;1.60;99.90;;;;;;4994404;28;20050;-71
2023/11/26 07:11:19;;;;;;;107.70;31.20;;;1.80;99.90;;;;;;4993959;28;20031;-70
2023/11/26 07:13:48;;;;;;;227.03;42.10;;;1.80;99.90;;;;;;4996638;28;20042;-71
2023/11/26 07:16:15;;;;;;;108.57;30.20;;;1.90;99.90;;;;;;5000045;28;20038;-70
2023/11/26 07:18:42;;;;;;;83.47;31.43;;;2.00;99.90;;;;;;5002170;28;20025;-70
2023/11/26 07:21:09;;;;;;;54.30;29.50;;;2.10;99.90;;;;;;5006765;28;20030;-71
2023/11/26 07:23:36;;;;;;;153.47;36.77;;;2.20;99.90;;;;;;4992952;28;20022;-70
2023/11/26 07:26:11;;;;;;;58.70;39.67;;;2.30;99.90;;;;;;5005034;28;20495;-71
2023/11/26 07:28:39;;;;;;;67.37;34.30;;;2.30;99.90;;;;;;5012110;28;20034;-71
2023/11/26 07:31:16;;;;;;;139.17;37.63;;;2.20;99.90;;;;;;5012832;28;20034;-71
2023/11/26 07:33:42;;;;;;;100.27;33.83;;;2.00;99.90;;;;;;5004091;28;20476;-71
2023/11/26 07:36:12;;;;;;;89.17;32.53;;;1.90;99.90;;;;;;5005807;28;20037;-71
2023/11/26 07:38:38;;;;;;;193.20;34.37;;;1.80;99.90;;;;;;5013305;28;20040;-70
2023/11/26 07:41:04;;;;;;;198.77;36.87;;;1.90;99.90;;;;;;5013226;28;20018;-71
2023/11/26 07:43:30;;;;;;;253.93;37.23;;;1.90;99.90;;;;;;5012322;28;20042;-71
2023/11/26 07:45:57;;;;;;;244.57;44.40;;;1.90;99.90;;;;;;5000890;28;20125;-70
2023/11/26 07:48:23;;;;;;;147.50;33.73;;;2.00;99.90;;;;;;4983162;28;20034;-71
2023/11/26 07:50:49;;;;;;;179.27;36.97;;;2.20;99.90;;;;;;4979669;28;20528;-71
2023/11/26 07:53:15;;;;;;;154.37;33.67;;;2.10;99.90;;;;;;4993630;28;20026;-71
2023/11/26 07:55:41;;;;;;;83.53;29.30;;;2.10;99.90;;;;;;4996805;28;20037;-71
2023/11/26 07:58:08;;;;;;;403.60;47.90;;;1.80;99.90;;;;;;5002869;28;20050;-75
2023/11/26 08:00:34;;;;;;;139.67;38.70;;;2.10;99.90;;;;;;5002922;28;20030;-75
2023/11/26 08:03:00;;;;;;;123.57;31.43;;;2.30;99.90;;;;;;5003729;28;20046;-75
2023/11/26 08:05:28;;;;;;;85.63;32.70;;;2.20;99.90;;;;;;4992199;28;20034;-75
2023/11/26 08:07:54;;;;;;;259.33;42.93;;;2.10;99.90;;;;;;4986601;28;20050;-75
2023/11/26 08:10:26;;;;;;;89.10;31.70;;;1.90;99.90;;;;;;4983393;28;20051;-75
2023/11/26 08:12:52;;;;;;;77.33;31.07;;;1.90;99.90;;;;;;4985616;28;20031;-75
2023/11/26 08:15:20;;;;;;;159.70;33.07;;;2.00;99.90;;;;;;4983896;28;20042;-75
2023/11/26 08:17:50;;;;;;;82.07;30.20;;;2.10;99.90;;;;;;4992100;28;20046;-75
2023/11/26 08:20:17;;;;;;;77.85;30.75;;;2.40;99.90;;;;;;4990553;28;20399;-74
2023/11/26 08:22:46;;;;;;;66.23;31.43;;;2.30;99.90;;;;;;4988533;28;20041;-73
2023/11/26 08:25:13;;;;;;;72.57;31.53;;;2.20;99.90;;;;;;4980556;28;20061;-73
2023/11/26 08:27:39;;;;;;;64.07;35.87;;;2.20;99.90;;;;;;4986750;28;20042;-73
2023/11/26 08:30:12;;;;;;;76.90;36.30;;;2.10;99.90;;;;;;4987169;28;20052;-76
2023/11/26 08:32:46;;;;;;;62.70;39.60;;;2.10;99.90;;;;;;4992795;28;20061;-75
2023/11/26 08:35:12;;;;;;;69.83;34.90;;;2.20;99.90;;;;;;4991783;28;20034;-75
2023/11/26 08:37:44;;;;;;;94.97;40.73;;;2.40;99.90;;;;;;4973913;28;20039;-75
2023/11/26 08:40:14;;;;;;;47.87;33.67;;;2.50;99.90;;;;;;4973503;28;20471;-76
2023/11/26 08:42:40;;;;;;;46.90;34.37;;;2.50;99.90;;;;;;4995421;28;20049;-75
2023/11/26 08:45:09;;;;;;;41.30;36.77;;;2.60;99.90;;;;;;4993329;28;20390;-75
2023/11/26 08:47:36;;;;;;;38.93;34.93;;;2.40;99.90;;;;;;4992597;28;20042;-76
2023/11/26 08:50:03;;;;;;;40.17;32.37;;;2.40;99.90;;;;;;4993270;28;20046;-76
2023/11/26 08:52:33;;;;;;;37.20;33.43;;;2.60;99.90;;;;;;5001069;28;20046;-75
2023/11/26 08:55:04;;;;;;;37.33;33.60;;;2.80;99.90;;;;;;5012479;28;20041;-76
2023/11/26 08:57:31;;;;;;;35.72;31.23;;;2.80;99.90;;;;;;4992500;28;20050;-75
2023/11/26 08:59:57;;;;;;;33.83;30.13;;;2.60;99.90;;;;;;4992302;28;20061;-71
2023/11/26 09:02:26;;;;;;;38.63;31.20;;;2.70;99.90;;;;;;5003684;28;20038;-72
2023/11/26 09:04:52;;;;;;;33.73;30.03;;;2.70;99.90;;;;;;5010116;28;20526;-72
2023/11/26 09:07:19;;;;;;;35.67;30.37;;;2.70;99.90;;;;;;4992198;28;20102;-71
2023/11/26 09:09:45;;;;;;;36.77;31.40;;;2.60;99.90;;;;;;4991163;28;20042;-72
2023/11/26 09:12:11;;;;;;;41.13;35.10;;;2.70;99.90;;;;;;4990356;28;20038;-71
2023/11/26 09:14:37;;;;;;;34.07;26.57;;;2.80;99.90;;;;;;4991650;28;20038;-72
2023/11/26 09:17:03;;;;;;;39.47;30.10;;;2.60;99.90;;;;;;5004404;28;20038;-71
2023/11/26 09:19:30;;;;;;;41.17;30.87;;;2.70;99.90;;;;;;5010037;28;20030;-72
2023/11/26 09:22:01;;;;;;;43.70;31.67;;;2.70;99.90;;;;;;4999110;28;20097;-71
2023/11/26 09:24:28;;;;;;;40.20;33.00;;;2.80;99.90;;;;;;4991701;28;20026;-71
2023/11/26 09:26:54;;;;;;;43.90;31.77;;;2.80;99.90;;;;;;4992334;28;20047;-71
2023/11/26 09:29:21;;;;;;;38.57;33.40;;;2.80;99.90;;;;;;4991768;28;20042;-71
2023/11/26 09:31:47;;;;;;;39.07;33.93;;;2.90;99.90;;;;;;4989924;28;20030;-72
2023/11/26 09:34:13;;;;;;;38.17;29.93;;;3.20;99.90;;;;;;4993239;28;20034;-71
2023/11/26 09:36:42;;;;;;;34.47;30.73;;;3.40;99.90;;;;;;5004899;28;20041;-71
2023/11/26 09:39:11;;;;;;;37.53;33.60;;;3.60;99.90;;;;;;5014458;28;20026;-72
2023/11/26 09:41:37;;;;;;;35.73;31.90;;;3.60;99.90;;;;;;5015242;28;20057;-72
2023/11/26 09:44:07;;;;;;;36.73;31.33;;;3.60;99.90;;;;;;5013505;28;20045;-71
2023/11/26 09:46:34;;;;;;;37.60;32.37;;;3.50;99.90;;;;;;5012817;28;20038;-71
2023/11/26 09:49:02;;;;;;;37.20;30.83;;;3.70;99.90;;;;;;5013832;28;20045;-71
2023/11/26 09:51:29;;;;;;;87.47;35.90;;;3.80;99.90;;;;;;5013412;28;20041;-71
2023/11/26 09:53:55;;;;;;;35.43;31.77;;;4.10;99.90;;;;;;5013814;28;20034;-71
2023/11/26 09:56:21;;;;;;;35.73;30.63;;;4.40;99.90;;;;;;5001783;28;20045;-72
2023/11/26 09:58:47;;;;;;;34.80;31.20;;;4.30;99.90;;;;;;4976589;28;20046;-71
2023/11/26 10:01:13;;;;;;;40.30;36.00;;;4.20;99.90;;;;;;4974462;28;20049;-71
2023/11/26 10:04:04;;;;;;;34.37;30.87;;;4.40;99.90;;;;;;4992590;28;20030;-71
2023/11/26 10:06:30;;;;;;;38.95;34.83;;;4.40;99.90;;;;;;5002948;28;20038;-71
2023/11/26 10:08:57;;;;;;;39.10;35.07;;;4.50;99.90;;;;;;5000132;28;20486;-72
2023/11/26 10:11:27;;;;;;;37.77;33.80;;;4.30;99.90;;;;;;5005675;28;20025;-71
2023/11/26 10:13:53;;;;;;;37.80;33.70;;;4.30;99.90;;;;;;5004153;28;20038;-71
2023/11/26 10:16:31;;;;;;;35.27;31.57;;;4.30;99.90;;;;;;5005432;28;20038;-72
2023/11/26 10:18:59;;;;;;;33.63;30.03;;;4.30;99.90;;;;;;4999056;28;20050;-71
2023/11/26 10:21:26;;;;;;;34.23;30.57;;;4.50;99.90;;;;;;4998296;28;20034;-71
2023/11/26 10:23:52;;;;;;;37.90;33.27;;;4.50;99.90;;;;;;5005251;28;20503;-71
2023/11/26 10:26:22;;;;;;;36.73;30.90;;;4.70;99.90;;;;;;5008851;28;20038;-72
2023/11/26 10:29:01;;;;;;;35.95;31.08;;;4.90;99.90;;;;;;4999678;28;20518;-72
2023/11/26 10:31:27;;;;;;;34.40;30.83;;;5.10;99.90;;;;;;5000882;28;20038;-72
2023/11/26 10:34:13;;;;;;;38.63;34.47;;;5.20;99.90;;;;;;5003084;28;20033;-72
2023/11/26 10:36:39;;;;;;;34.20;30.33;;;5.30;99.90;;;;;;5007915;28;20031;-72
2023/11/26 10:39:09;;;;;;;37.93;34.07;;;5.50;99.90;;;;;;4991973;28;20046;-72
2023/11/26 10:41:35;;;;;;;35.20;31.60;;;5.40;99.90;;;;;;5003842;28;20026;-71
2023/11/26 10:44:02;;;;;;;35.50;31.52;;;5.40;99.90;;;;;;4997357;28;20030;-71
2023/11/26 10:46:29;;;;;;;34.80;30.97;;;5.40;99.90;;;;;;5009201;28;20053;-71
2023/11/26 10:48:59;;;;;;;36.23;32.47;;;5.50;99.90;;;;;;4996808;28;20065;-71
2023/11/26 10:51:28;;;;;;;38.93;31.47;;;5.50;99.90;;;;;;5005851;28;20038;-75
2023/11/26 10:54:02;;;;;;;38.97;33.43;;;5.50;99.90;;;;;;5005789;28;20034;-74
2023/11/26 10:56:39;;;;;;;36.05;32.15;;;5.60;99.90;;;;;;4994814;28;20026;-75
2023/11/26 10:59:09;;;;;;;34.00;30.37;;;5.70;99.90;;;;;;4998152;28;20049;-75
2023/11/26 11:01:36;;;;;;;36.50;32.57;;;5.90;99.90;;;;;;5000030;28;20045;-75
2023/11/26 11:04:03;;;;;;;35.20;31.57;;;5.90;99.90;;;;;;5006635;28;20049;-75
2023/11/26 11:06:29;;;;;;;37.10;33.28;;;5.90;99.90;;;;;;4998485;28;20042;-75
2023/11/26 11:08:55;;;;;;;37.17;33.47;;;6.10;99.90;;;;;;4995470;28;20034;-75
2023/11/26 11:11:34;;;;;;;37.85;34.10;;;6.30;99.90;;;;;;5004284;28;20048;-75
2023/11/26 11:14:01;;;;;;;43.10;39.28;;;6.60;99.90;;;;;;5001260;28;20038;-75
2023/11/26 11:16:27;;;;;;;38.85;35.30;;;6.60;99.90;;;;;;5000435;28;20042;-75
2023/11/26 11:18:56;;;;;;;41.35;37.65;;;6.50;99.90;;;;;;4993531;28;20484;-75
2023/11/26 11:21:24;;;;;;;38.38;34.28;;;6.60;99.90;;;;;;5005036;28;20091;-74
2023/11/26 11:23:53;;;;;;;63.15;56.42;;;6.70;99.90;;;;;;4999597;28;20050;-75
2023/11/26 11:26:21;;;;;;;54.83;49.85;;;6.90;99.90;;;;;;5007882;28;20038;-75
2023/11/26 11:28:53;;;;;;;47.95;43.58;;;7.10;99.90;;;;;;5010856;28;20045;-75
2023/11/26 11:31:22;;;;;;;49.15;43.78;;;7.30;99.90;;;;;;4993521;28;20042;-75
2023/11/26 11:33:57;;;;;;;46.17;41.70;;;7.30;99.90;;;;;;4999409;28;20041;-75
2023/11/26 11:36:44;;;;;;;40.60;36.63;;;7.50;99.90;;;;;;5001870;28;20034;-75
2023/11/26 11:39:14;;;;;;;39.05;35.10;;;7.80;99.90;;;;;;5000368;28;20033;-75
2023/11/26 11:41:58;;;;;;;37.20;33.88;;;7.70;99.90;;;;;;5002428;28;20018;-75
2023/11/26 11:44:34;;;;;;;56.58;51.88;;;7.80;99.90;;;;;;5004398;28;20026;-75
2023/11/26 11:47:03;;;;;;;42.58;38.97;;;7.70;99.90;;;;;;4997737;28;20514;-74
2023/11/26 11:49:45;;;;;;;54.03;49.78;;;7.70;99.90;;;;;;5003073;28;20049;-74
2023/11/26 11:52:14;;;;;;;48.67;44.88;;;7.80;99.90;;;;;;5004782;28;20041;-72
2023/11/26 11:55:08;;;;;;;58.17;53.80;;;8.00;99.90;;;;;;4990617;28;20482;-72
2023/11/26 11:57:52;;;;;;;57.67;53.63;;;8.20;99.90;;;;;;5004212;28;20030;-71
2023/11/26 12:00:22;;;;;;;54.75;50.50;;;8.10;99.90;;;;;;4997534;28;20026;-72
2023/11/26 12:02:52;;;;;;;67.85;63.20;;;8.30;99.90;;;;;;4987816;28;20050;-71
2023/11/26 12:05:25;;;;;;;90.93;85.20;;;8.40;99.90;;;;;;4999405;28;20032;-71
2023/11/26 12:07:52;;;;;;;94.70;89.18;;;8.80;99.90;;;;;;5003546;28;20420;-72
2023/11/26 12:10:25;;;;;;;173.73;164.07;;;8.90;99.90;;;;;;4994750;28;20045;-72
2023/11/26 12:13:10;;;;;;;197.50;186.93;;;9.00;99.90;;;;;;5003802;28;20023;-72
2023/11/26 12:15:38;;;;;;;132.77;125.68;;;9.10;99.90;;;;;;4993785;28;20045;-72
2023/11/26 12:18:05;;;;;;;108.03;102.13;;;9.40;99.90;;;;;;4997200;28;20617;-71
2023/11/26 12:20:31;;;;;;;114.72;108.45;;;9.70;99.90;;;;;;5000855;28;20030;-71
2023/11/26 12:22:57;;;;;;;100.88;95.22;;;9.80;99.90;;;;;;4995453;28;20033;-71
2023/11/26 12:25:23;;;;;;;91.47;86.28;;;9.90;99.90;;;;;;4992233;28;20046;-71
2023/11/26 12:28:06;;;;;;;78.95;74.40;;;10.00;99.90;;;;;;4998236;28;20042;-72
2023/11/26 12:30:33;;;;;;;79.18;74.70;;;10.00;99.90;;;;;;4998161;28;20661;-71
2023/11/26 12:33:00;;;;;;;75.30;71.03;;;9.80;99.90;;;;;;5003521;28;20041;-71
2023/11/26 12:35:28;;;;;;;75.75;71.53;;;9.70;99.90;;;;;;5006313;28;20033;-70
2023/11/26 12:37:56;;;;;;;78.45;74.05;;;9.80;99.90;;;;;;4991082;28;20034;-70